createdAt,value
2018-06-21T00:04:46.676Z,20.10
2018-06-21T00:07:16.103Z,20.10
2018-06-21T00:09:45.298Z,20.00
2018-06-21T00:12:14.503Z,19.90
2018-06-21T00:14:43.776Z,19.70
2018-06-21T00:17:13.057Z,19.50
2018-06-21T00:19:42.295Z,19.70
2018-06-21T00:22:11.571Z,19.80
2018-06-21T00:24:40.792Z,19.90
2018-06-21T00:27:10.516Z,19.80
2018-06-21T00:29:39.825Z,19.80
2018-06-21T00:32:09.068Z,19.80
2018-06-21T00:34:38.304Z,19.90
2018-06-21T00:37:07.647Z,19.80
2018-06-21T00:39:37.201Z,19.80
2018-06-21T00:42:06.691Z,19.70
2018-06-21T00:44:35.895Z,19.70
2018-06-21T00:47:05.152Z,19.70
2018-06-21T00:49:34.975Z,19.50
2018-06-21T00:52:04.311Z,19.40
2018-06-21T00:54:33.591Z,19.20
2018-06-21T00:57:02.863Z,19.20
2018-06-21T00:59:41.025Z,19.00
2018-06-21T01:02:10.309Z,18.80
2018-06-21T01:04:39.580Z,18.70
2018-06-21T01:07:08.847Z,18.60
2018-06-21T01:09:38.091Z,18.50
2018-06-21T01:12:07.324Z,18.40
2018-06-21T01:14:36.575Z,18.40
2018-06-21T01:17:06.079Z,18.40
2018-06-21T01:19:36.011Z,18.40
2018-06-21T01:22:05.287Z,18.40
2018-06-21T01:24:34.530Z,18.70
2018-06-21T01:27:03.767Z,18.80
2018-06-21T01:29:33.043Z,18.70
2018-06-21T01:32:02.654Z,18.60
2018-06-21T01:34:31.950Z,18.70
2018-06-21T01:37:01.175Z,18.90
2018-06-21T01:39:30.493Z,18.60
2018-06-21T01:41:59.733Z,18.50
2018-06-21T01:44:28.981Z,18.60
2018-06-21T01:46:58.175Z,18.70
2018-06-21T01:49:27.451Z,18.80
2018-06-21T01:51:56.747Z,18.90
2018-06-21T01:54:26.520Z,19.10
2018-06-21T01:56:55.800Z,19.10
2018-06-21T01:59:25.507Z,19.10
2018-06-21T02:01:54.789Z,19.20
2018-06-21T02:04:23.984Z,19.20
2018-06-21T02:06:53.211Z,19.30
2018-06-21T02:09:22.416Z,19.30
2018-06-21T02:11:51.632Z,19.10
2018-06-21T02:14:20.905Z,19.00
2018-06-21T02:16:50.104Z,19.00
2018-06-21T02:19:19.333Z,19.10
2018-06-21T02:21:48.559Z,19.10
2018-06-21T02:24:17.895Z,19.20
2018-06-21T02:26:47.136Z,19.20
2018-06-21T02:29:17.015Z,19.10
2018-06-21T02:31:46.252Z,19.10
2018-06-21T02:34:15.541Z,19.10
2018-06-21T02:36:44.765Z,19.10
2018-06-21T02:39:14.041Z,19.10
2018-06-21T02:41:43.708Z,19.20
2018-06-21T02:44:12.980Z,19.00
2018-06-21T02:46:42.366Z,18.90
2018-06-21T02:49:11.609Z,18.70
2018-06-21T02:51:40.859Z,18.90
2018-06-21T02:54:10.145Z,19.00
2018-06-21T02:56:40.459Z,19.00
2018-06-21T02:59:09.835Z,19.10
2018-06-21T03:01:38.999Z,19.00
2018-06-21T03:04:08.245Z,19.10
2018-06-21T03:06:37.476Z,19.10
2018-06-21T03:09:08.501Z,19.20
2018-06-21T03:11:37.814Z,19.30
2018-06-21T03:14:07.228Z,19.30
2018-06-21T03:16:36.545Z,19.30
2018-06-21T03:19:05.792Z,19.40
2018-06-21T03:21:35.009Z,19.30
2018-06-21T03:24:04.777Z,19.30
2018-06-21T03:26:34.093Z,19.30
2018-06-21T03:29:03.319Z,19.30
2018-06-21T03:31:32.555Z,19.20
2018-06-21T03:34:01.820Z,19.20
2018-06-21T03:36:31.034Z,19.10
2018-06-21T03:39:00.262Z,19.10
2018-06-21T03:41:30.127Z,19.10
2018-06-21T03:43:59.469Z,19.10
2018-06-21T03:46:29.339Z,19.10
2018-06-21T03:48:58.640Z,19.10
2018-06-21T03:51:27.924Z,18.90
2018-06-21T03:53:57.479Z,18.90
2018-06-21T03:56:26.760Z,19.00
2018-06-21T03:58:55.992Z,19.00
2018-06-21T04:01:25.758Z,19.00
2018-06-21T04:03:55.068Z,19.00
2018-06-21T04:06:24.431Z,18.90
2018-06-21T04:08:53.615Z,19.00
2018-06-21T04:11:22.885Z,18.90
2018-06-21T04:13:52.187Z,18.90
2018-06-21T04:16:21.776Z,18.80
2018-06-21T04:18:51.084Z,18.80
2018-06-21T04:21:21.143Z,18.70
2018-06-21T04:23:50.490Z,18.80
2018-06-21T04:26:19.912Z,18.80
2018-06-21T04:28:49.234Z,18.80
2018-06-21T04:31:18.879Z,18.90
2018-06-21T04:33:48.088Z,18.90
2018-06-21T04:36:17.386Z,18.90
2018-06-21T04:38:46.592Z,18.90
2018-06-21T04:41:15.918Z,18.90
2018-06-21T04:43:45.145Z,18.90
2018-06-21T04:46:14.542Z,19.00
2018-06-21T04:48:43.835Z,19.00
2018-06-21T04:51:13.116Z,19.10
2018-06-21T04:53:42.416Z,19.10
2018-06-21T04:56:11.685Z,19.10
2018-06-21T04:58:41.108Z,19.10
2018-06-21T05:01:10.532Z,19.10
2018-06-21T05:03:39.764Z,19.20
2018-06-21T05:06:09.011Z,19.10
2018-06-21T05:08:38.268Z,19.10
2018-06-21T05:11:07.536Z,19.30
2018-06-21T05:13:36.999Z,19.30
2018-06-21T05:16:06.282Z,19.30
2018-06-21T05:18:35.544Z,19.20
2018-06-21T05:21:04.938Z,19.30
2018-06-21T05:23:34.475Z,19.20
2018-06-21T05:26:03.782Z,19.30
2018-06-21T05:28:33.256Z,19.10
2018-06-21T05:31:02.526Z,19.10
2018-06-21T05:33:31.916Z,19.20
2018-06-21T05:36:01.212Z,19.20
2018-06-21T05:38:30.488Z,19.00
2018-06-21T05:40:59.747Z,19.00
2018-06-21T05:43:28.976Z,18.80
2018-06-21T05:45:58.211Z,19.00
2018-06-21T05:48:28.237Z,18.80
2018-06-21T05:50:57.638Z,18.80
2018-06-21T05:53:26.860Z,18.80
2018-06-21T05:55:56.084Z,18.80
2018-06-21T05:58:25.304Z,18.90
2018-06-21T06:00:54.524Z,18.90
2018-06-21T06:03:23.839Z,18.90
2018-06-21T06:05:53.176Z,18.80
2018-06-21T06:08:22.632Z,18.80
2018-06-21T06:10:51.744Z,18.80
2018-06-21T06:13:21.663Z,18.70
2018-06-21T06:15:50.927Z,18.70
2018-06-21T06:18:20.192Z,18.60
2018-06-21T06:20:49.475Z,18.60
2018-06-21T06:23:18.731Z,18.60
2018-06-21T06:25:47.975Z,18.50
2018-06-21T06:28:17.287Z,18.40
2018-06-21T06:30:46.547Z,18.20
2018-06-21T06:33:16.111Z,18.10
2018-06-21T06:35:45.419Z,18.20
2018-06-21T06:38:14.677Z,18.30
2018-06-21T06:40:43.983Z,18.20
2018-06-21T06:43:13.232Z,18.00
2018-06-21T06:45:42.596Z,18.30
2018-06-21T06:48:11.859Z,18.20
2018-06-21T06:50:41.928Z,18.30
2018-06-21T06:53:11.229Z,18.30
2018-06-21T06:55:40.582Z,18.40
2018-06-21T06:58:10.188Z,18.40
2018-06-21T07:00:40.120Z,18.30
2018-06-21T07:03:10.297Z,18.40
2018-06-21T07:05:39.644Z,18.30
2018-06-21T07:08:08.983Z,18.30
2018-06-21T07:10:38.155Z,18.20
2018-06-21T07:13:07.781Z,18.00
2018-06-21T07:15:37.068Z,17.90
2018-06-21T07:18:06.393Z,17.90
2018-06-21T07:20:36.267Z,17.90
2018-06-21T07:23:05.599Z,17.90
2018-06-21T07:25:34.970Z,18.10
2018-06-21T07:28:04.976Z,18.10
2018-06-21T07:30:34.278Z,18.10
2018-06-21T07:33:03.562Z,18.30
2018-06-21T07:35:32.923Z,18.70
2018-06-21T07:38:02.182Z,18.90
2018-06-21T07:40:31.427Z,19.10
2018-06-21T07:43:00.635Z,19.00
2018-06-21T07:45:29.883Z,19.10
2018-06-21T07:47:59.121Z,19.00
2018-06-21T07:50:28.416Z,19.10
2018-06-21T07:52:58.246Z,19.00
2018-06-21T07:55:27.475Z,19.10
2018-06-21T07:57:56.824Z,19.00
2018-06-21T08:00:26.097Z,19.10
2018-06-21T08:02:55.397Z,18.80
2018-06-21T08:05:24.617Z,18.90
2018-06-21T08:07:53.873Z,18.80
2018-06-21T08:10:23.176Z,18.80
2018-06-21T08:12:53.441Z,18.80
2018-06-21T08:15:22.615Z,18.90
2018-06-21T08:17:52.005Z,18.90
2018-06-21T08:20:21.300Z,18.80
2018-06-21T08:22:50.518Z,18.90
2018-06-21T08:25:19.767Z,18.90
2018-06-21T08:27:49.003Z,18.80
2018-06-21T08:30:19.053Z,19.10
2018-06-21T08:32:48.388Z,19.30
2018-06-21T08:35:17.891Z,19.60
2018-06-21T08:37:47.280Z,19.70
2018-06-21T08:40:16.560Z,19.70
2018-06-21T08:42:45.771Z,19.80
2018-06-21T08:45:15.083Z,20.40
2018-06-21T08:47:44.415Z,21.10
2018-06-21T08:50:13.672Z,21.70
2018-06-21T08:52:43.548Z,21.60
2018-06-21T08:55:14.487Z,21.00
2018-06-21T08:57:43.701Z,20.50
2018-06-21T09:00:13.127Z,19.90
2018-06-21T09:02:42.428Z,19.60
2018-06-21T09:05:11.745Z,19.50
2018-06-21T09:07:41.245Z,19.30
2018-06-21T09:10:10.572Z,19.80
2018-06-21T09:12:39.833Z,19.90
2018-06-21T09:15:10.569Z,19.90
2018-06-21T09:17:39.869Z,20.40
2018-06-21T09:20:09.128Z,20.40
2018-06-21T09:22:38.365Z,20.60
2018-06-21T09:25:07.708Z,21.00
2018-06-21T09:27:37.239Z,21.10
2018-06-21T09:30:06.824Z,20.60
2018-06-21T09:32:36.144Z,20.40
2018-06-21T09:35:05.416Z,20.80
2018-06-21T09:37:40.001Z,20.60
2018-06-21T09:40:14.653Z,21.20
2018-06-21T09:42:49.303Z,21.20
2018-06-21T09:48:15.958Z,21.50
2018-06-21T09:50:45.215Z,21.40
2018-06-21T09:53:14.583Z,21.50
2018-06-21T09:55:43.845Z,21.20
2018-06-21T09:58:13.142Z,20.80
2018-06-21T10:00:47.673Z,20.70
2018-06-21T10:03:17.479Z,20.80
2018-06-21T10:05:47.517Z,21.00
2018-06-21T10:08:16.927Z,21.90
2018-06-21T10:10:46.318Z,22.20
2018-06-21T10:13:15.552Z,22.00
2018-06-21T10:15:44.966Z,21.30
2018-06-21T10:18:14.204Z,20.90
2018-06-21T10:20:43.582Z,20.60
2018-06-21T10:23:13.451Z,20.70
2018-06-21T10:25:42.753Z,21.80
2018-06-21T10:28:12.260Z,22.90
2018-06-21T10:30:41.561Z,23.50
2018-06-21T10:33:10.819Z,24.10
2018-06-21T10:35:40.090Z,24.20
2018-06-21T10:38:09.389Z,24.30
2018-06-21T10:40:38.631Z,23.90
2018-06-21T10:43:08.368Z,23.60
2018-06-21T10:45:38.189Z,22.80
2018-06-21T10:48:07.474Z,21.90
2018-06-21T10:50:36.827Z,21.40
2018-06-21T10:53:06.069Z,21.10
2018-06-21T10:55:36.192Z,21.10
2018-06-21T10:58:05.475Z,21.90
2018-06-21T11:00:35.508Z,22.60
2018-06-21T11:03:04.804Z,22.90
2018-06-21T11:05:34.081Z,22.90
2018-06-21T11:08:03.324Z,23.10
2018-06-21T11:10:32.592Z,23.70
2018-06-21T11:13:01.878Z,23.70
2018-06-21T11:15:31.103Z,23.10
2018-06-21T11:18:00.341Z,23.20
2018-06-21T11:20:29.634Z,23.90
2018-06-21T11:22:58.952Z,23.60
2018-06-21T11:25:28.180Z,23.70
2018-06-21T11:27:57.428Z,24.10
2018-06-21T11:30:26.763Z,24.40
2018-06-21T11:32:56.033Z,24.30
2018-06-21T11:35:25.276Z,24.30
2018-06-21T11:37:54.532Z,24.30
2018-06-21T11:40:24.204Z,24.50
2018-06-21T11:42:53.560Z,24.50
2018-06-21T11:45:22.963Z,24.60
2018-06-21T11:47:52.880Z,24.70
2018-06-21T11:50:22.151Z,25.10
2018-06-21T11:52:51.420Z,25.40
2018-06-21T11:55:20.663Z,25.40
2018-06-21T11:57:49.928Z,24.40
2018-06-21T12:00:19.252Z,23.70
2018-06-21T12:02:48.807Z,23.60
2018-06-21T12:05:18.041Z,24.60
2018-06-21T12:07:47.347Z,24.30
2018-06-21T12:10:16.667Z,23.70
2018-06-21T12:12:46.020Z,24.20
2018-06-21T12:15:15.380Z,24.40
2018-06-21T12:17:44.663Z,24.60
2018-06-21T12:20:13.929Z,25.30
2018-06-21T12:22:43.334Z,25.50
2018-06-21T12:25:12.644Z,25.10
2018-06-21T12:27:41.955Z,24.00
2018-06-21T12:30:11.375Z,23.50
2018-06-21T12:32:40.637Z,22.40
2018-06-21T12:35:09.860Z,22.40
2018-06-21T12:37:39.895Z,23.20
2018-06-21T12:40:09.159Z,22.60
2018-06-21T12:42:38.514Z,22.80
2018-06-21T12:45:07.839Z,23.10
2018-06-21T12:47:37.126Z,22.90
2018-06-21T12:50:06.452Z,22.80
2018-06-21T12:52:35.990Z,23.30
2018-06-21T12:55:05.237Z,23.00
2018-06-21T12:57:35.195Z,22.70
2018-06-21T13:00:04.572Z,22.90
2018-06-21T13:02:34.200Z,22.70
2018-06-21T13:05:03.441Z,22.40
2018-06-21T13:07:32.786Z,22.70
2018-06-21T13:10:13.460Z,22.60
2018-06-21T13:12:54.860Z,22.30
2018-06-21T13:15:24.417Z,22.10
2018-06-21T13:17:53.686Z,21.60
2018-06-21T13:20:22.983Z,21.50
2018-06-21T13:22:52.275Z,22.10
2018-06-21T13:25:21.855Z,21.90
2018-06-21T13:27:51.455Z,21.60
2018-06-21T13:30:20.757Z,21.80
2018-06-21T13:32:50.743Z,21.60
2018-06-21T13:35:20.134Z,22.20
2018-06-21T13:37:49.530Z,22.80
2018-06-21T13:40:19.218Z,23.20
2018-06-21T13:42:48.558Z,23.50
2018-06-21T13:45:18.179Z,24.00
2018-06-21T13:47:48.019Z,23.90
2018-06-21T13:50:17.229Z,24.00
2018-06-21T13:52:46.483Z,24.40
2018-06-21T13:55:15.895Z,24.50
2018-06-21T13:57:45.176Z,24.40
2018-06-21T14:00:14.455Z,24.20
2018-06-21T14:02:43.768Z,24.20
2018-06-21T14:05:13.208Z,23.80
2018-06-21T14:07:42.584Z,23.10
2018-06-21T14:10:11.657Z,22.90
2018-06-21T14:12:40.939Z,22.70
2018-06-21T14:15:10.326Z,23.40
2018-06-21T14:17:39.615Z,23.70
2018-06-21T14:20:08.888Z,23.30
2018-06-21T14:22:38.120Z,23.50
2018-06-21T14:25:07.404Z,23.60
2018-06-21T14:27:37.293Z,23.20
2018-06-21T14:30:06.711Z,23.20
2018-06-21T14:32:35.962Z,23.30
2018-06-21T14:35:05.297Z,23.20
2018-06-21T14:37:34.567Z,23.40
2018-06-21T14:40:04.571Z,22.90
2018-06-21T14:42:33.797Z,22.30
2018-06-21T14:45:03.067Z,21.80
2018-06-21T14:47:32.696Z,21.80
2018-06-21T14:50:02.668Z,21.80
2018-06-21T14:52:31.915Z,21.80
2018-06-21T14:55:01.185Z,22.00
2018-06-21T14:57:30.594Z,21.50
2018-06-21T14:59:59.825Z,21.30
2018-06-21T15:02:29.080Z,21.40
2018-06-21T15:04:58.471Z,21.00
2018-06-21T15:07:27.623Z,20.70
2018-06-21T15:09:56.864Z,20.70
2018-06-21T15:12:26.099Z,20.60
2018-06-21T15:14:55.311Z,20.70
2018-06-21T15:17:24.563Z,20.80
2018-06-21T15:19:53.907Z,20.70
2018-06-21T15:22:23.699Z,20.60
2018-06-21T15:24:52.895Z,20.40
2018-06-21T15:27:22.223Z,20.20
2018-06-21T15:29:51.588Z,20.30
2018-06-21T15:32:20.895Z,20.00
2018-06-21T15:34:50.171Z,20.10
2018-06-21T15:37:19.519Z,20.00
2018-06-21T15:39:48.764Z,20.20
2018-06-21T15:42:18.007Z,20.20
2018-06-21T15:44:48.000Z,19.90
2018-06-21T15:47:17.270Z,19.90
2018-06-21T15:49:51.085Z,19.80
2018-06-21T15:52:20.366Z,19.50
2018-06-21T15:54:49.936Z,19.60
2018-06-21T15:57:19.278Z,19.20
2018-06-21T15:59:48.487Z,19.20
2018-06-21T16:02:17.913Z,19.20
2018-06-21T16:04:47.216Z,19.20
2018-06-21T16:07:16.804Z,19.10
2018-06-21T16:09:46.044Z,19.20
2018-06-21T16:12:15.600Z,18.90
2018-06-21T16:14:45.165Z,18.90
2018-06-21T16:17:14.446Z,18.70
2018-06-21T16:19:43.747Z,18.80
2018-06-21T16:22:13.019Z,18.80
2018-06-21T16:24:42.275Z,18.70
2018-06-21T16:27:11.624Z,18.70
2018-06-21T16:29:41.519Z,18.50
2018-06-21T16:32:10.830Z,18.40
2018-06-21T16:34:40.159Z,18.40
2018-06-21T16:37:09.636Z,18.50
2018-06-21T16:39:38.892Z,18.10
2018-06-21T16:42:08.143Z,18.30
2018-06-21T16:44:37.411Z,18.20
2018-06-21T16:47:06.703Z,18.20
2018-06-21T16:49:35.965Z,18.10
2018-06-21T16:52:05.381Z,18.40
2018-06-21T16:54:34.641Z,18.10
2018-06-21T16:57:03.890Z,17.90
2018-06-21T16:59:33.484Z,17.90
2018-06-21T17:02:02.772Z,17.90
2018-06-21T17:04:32.083Z,17.90
2018-06-21T17:07:01.314Z,17.70
2018-06-21T17:09:30.611Z,17.40
2018-06-21T17:11:59.952Z,17.60
2018-06-21T17:14:29.302Z,17.70
2018-06-21T17:16:59.081Z,17.90
2018-06-21T17:19:28.584Z,17.80
2018-06-21T17:21:57.777Z,17.70
2018-06-21T17:24:27.468Z,17.80
2018-06-21T17:26:56.755Z,17.50
2018-06-21T17:29:26.025Z,17.10
2018-06-21T17:31:55.284Z,17.00
2018-06-21T17:34:24.567Z,17.40
2018-06-21T17:36:54.737Z,17.60
2018-06-21T17:39:24.009Z,17.60
2018-06-21T17:41:53.303Z,17.60
2018-06-21T17:44:22.545Z,17.60
2018-06-21T17:46:51.859Z,17.40
2018-06-21T17:49:21.153Z,17.50
2018-06-21T17:51:50.444Z,17.40
2018-06-21T17:54:19.701Z,17.50
2018-06-21T17:59:17.741Z,17.20
2018-06-21T18:01:47.239Z,17.30
2018-06-21T18:04:16.535Z,17.30
2018-06-21T18:06:46.791Z,17.20
2018-06-21T18:09:16.083Z,17.10
2018-06-21T18:11:45.395Z,17.00
2018-06-21T18:14:14.748Z,17.20
2018-06-21T18:16:44.017Z,17.00
2018-06-21T18:19:13.345Z,16.70
2018-06-21T18:21:42.670Z,16.60
2018-06-21T18:24:12.097Z,16.90
2018-06-21T18:26:41.359Z,16.80
2018-06-21T18:29:10.686Z,16.90
2018-06-21T18:31:39.977Z,16.80
2018-06-21T18:36:40.028Z,16.80
2018-06-21T18:39:11.813Z,16.50
2018-06-21T18:41:41.611Z,16.70
2018-06-21T18:44:11.177Z,16.80
2018-06-21T18:46:40.488Z,16.80
2018-06-21T18:49:09.813Z,16.90
2018-06-21T18:51:39.131Z,16.90
2018-06-21T18:54:08.414Z,16.90
2018-06-21T18:56:38.707Z,16.70
2018-06-21T18:59:08.013Z,16.80
2018-06-21T19:01:37.469Z,16.60
2018-06-21T19:04:06.840Z,16.40
2018-06-21T19:06:41.423Z,16.40
2018-06-21T19:09:16.080Z,16.30
2018-06-21T19:11:51.032Z,16.30
2018-06-21T19:14:20.412Z,16.30
2018-06-21T19:16:49.677Z,16.30
2018-06-21T19:19:19.042Z,16.00
2018-06-21T19:21:48.231Z,16.30
2018-06-21T19:24:17.463Z,16.20
2018-06-21T19:26:46.816Z,16.10
2018-06-21T19:29:16.158Z,15.90
2018-06-21T19:31:45.556Z,16.10
2018-06-21T19:34:15.067Z,16.10
2018-06-21T19:36:44.346Z,16.00
2018-06-21T19:39:13.637Z,15.80
2018-06-21T19:41:42.969Z,15.80
2018-06-21T19:44:12.356Z,15.90
2018-06-21T19:46:41.620Z,15.80
2018-06-21T19:49:11.489Z,15.70
2018-06-21T19:51:40.942Z,16.10
2018-06-21T19:54:10.312Z,15.80
2018-06-21T19:56:39.599Z,16.00
2018-06-21T19:59:08.947Z,15.80
2018-06-21T20:01:38.231Z,15.70
2018-06-21T20:04:07.696Z,15.60
2018-06-21T20:06:37.025Z,15.90
2018-06-21T20:09:09.016Z,15.70
2018-06-21T20:11:38.704Z,15.50
2018-06-21T20:14:07.963Z,15.40
2018-06-21T20:16:37.292Z,15.60
2018-06-21T20:19:10.138Z,15.00
2018-06-21T20:21:39.750Z,15.00
2018-06-21T20:24:09.830Z,15.10
2018-06-21T20:29:14.076Z,14.90
2018-06-21T20:31:43.741Z,15.00
2018-06-21T20:34:13.475Z,15.10
2018-06-21T20:36:42.867Z,15.00
2018-06-21T20:39:12.536Z,15.10
2018-06-21T20:41:41.868Z,15.00
2018-06-21T20:44:11.242Z,15.30
2018-06-21T20:46:40.608Z,15.20
2018-06-21T20:49:09.843Z,14.80
2018-06-21T20:51:39.420Z,14.60
2018-06-21T20:54:08.764Z,14.70
2018-06-21T20:56:38.093Z,14.60
2018-06-21T20:59:07.540Z,14.80
2018-06-21T21:01:36.788Z,14.40
2018-06-21T21:04:06.057Z,14.50
2018-06-21T21:06:35.362Z,14.50
2018-06-21T21:09:07.060Z,14.80
2018-06-21T21:11:36.469Z,14.60
2018-06-21T21:14:05.682Z,14.70
2018-06-21T21:16:35.005Z,14.70
2018-06-21T21:19:04.228Z,14.50
2018-06-21T21:21:33.522Z,14.70
2018-06-21T21:24:02.849Z,14.60
2018-06-21T21:26:32.060Z,14.30
2018-06-21T21:29:01.299Z,14.60
2018-06-21T21:31:30.561Z,14.50
2018-06-21T21:33:59.816Z,14.50
2018-06-21T21:36:29.008Z,14.40
2018-06-21T21:38:58.212Z,14.50
2018-06-21T21:41:27.750Z,14.50
2018-06-21T21:43:56.971Z,14.40
2018-06-21T21:46:26.297Z,14.20
2018-06-21T21:48:55.535Z,14.10
2018-06-21T21:51:24.840Z,14.40
2018-06-21T21:53:54.525Z,13.90
2018-06-21T21:56:24.111Z,13.80
2018-06-21T21:58:53.354Z,14.10
2018-06-21T22:01:22.627Z,14.50
2018-06-21T22:03:52.029Z,14.20
2018-06-21T22:06:21.308Z,14.30
2018-06-21T22:08:50.619Z,14.20
2018-06-21T22:11:20.582Z,14.20
2018-06-21T22:13:54.813Z,14.30
2018-06-21T22:16:24.079Z,14.20
2018-06-21T22:18:53.375Z,14.10
2018-06-21T22:21:22.723Z,14.10
2018-06-21T22:23:52.025Z,14.00
2018-06-21T22:26:21.365Z,13.90
2018-06-21T22:28:50.712Z,13.90
2018-06-21T22:31:19.910Z,13.90
2018-06-21T22:33:49.417Z,13.90
2018-06-21T22:36:19.368Z,13.50
2018-06-21T22:38:48.596Z,13.50
2018-06-21T22:41:17.866Z,13.60
2018-06-21T22:43:47.113Z,13.60
2018-06-21T22:46:16.323Z,13.50
2018-06-21T22:48:45.718Z,13.40
2018-06-21T22:51:15.000Z,13.50
2018-06-21T22:53:44.235Z,13.30
2018-06-21T22:56:13.399Z,13.20
2018-06-21T22:58:42.676Z,13.20
2018-06-21T23:01:11.900Z,13.30
2018-06-21T23:03:41.099Z,13.10
2018-06-21T23:06:10.340Z,13.40
2018-06-21T23:08:39.592Z,13.30
2018-06-21T23:13:37.675Z,13.30
2018-06-21T23:16:06.919Z,13.10
2018-06-21T23:18:47.460Z,13.30
2018-06-21T23:21:17.327Z,13.10
2018-06-21T23:23:46.925Z,13.20
2018-06-21T23:26:16.199Z,13.10
2018-06-21T23:28:45.470Z,13.00
2018-06-21T23:31:14.645Z,13.10
2018-06-21T23:33:43.897Z,12.90
2018-06-21T23:36:13.116Z,13.10
2018-06-21T23:38:42.370Z,13.40
2018-06-21T23:41:11.568Z,13.40
2018-06-21T23:43:40.839Z,13.30
2018-06-21T23:46:10.248Z,13.20
2018-06-21T23:48:39.484Z,13.20
2018-06-21T23:51:08.740Z,13.30
2018-06-21T23:53:38.103Z,13.60
2018-06-21T23:56:07.311Z,13.30
2018-06-21T23:58:36.647Z,13.30
